sensor_id;sensor_type;location;lat;lon;timestamp;pressure;altitude;pressure_sealevel;temperature;humidity
21276;BME280;36472;52.170;20.884;2022-11-03T00:01:50;101030.75;;;11.30;80.73
21276;BME280;36472;52.170;20.884;2022-11-03T00:04:22;101033.72;;;11.54;80.68
21276;BME280;36472;52.170;20.884;2022-11-03T00:06:53;101030.78;;;11.44;80.48
21276;BME280;36472;52.170;20.884;2022-11-03T00:09:23;101030.59;;;10.87;84.12
21276;BME280;36472;52.170;20.884;2022-11-03T00:11:53;101031.50;;;11.76;78.41
21276;BME280;36472;52.170;20.884;2022-11-03T00:14:22;101031.59;;;11.75;78.16
21276;BME280;36472;52.170;20.884;2022-11-03T00:16:51;101034.97;;;11.63;78.69
21276;BME280;36472;52.170;20.884;2022-11-03T00:19:21;101031.28;;;10.58;82.16
21276;BME280;36472;52.170;20.884;2022-11-03T00:21:50;101035.84;;;10.05;88.17
21276;BME280;36472;52.170;20.884;2022-11-03T00:24:19;101040.25;;;10.86;82.95
21276;BME280;36472;52.170;20.884;2022-11-03T00:26:47;101038.91;;;10.47;84.45
21276;BME280;36472;52.170;20.884;2022-11-03T00:29:16;101044.31;;;10.10;88.50
21276;BME280;36472;52.170;20.884;2022-11-03T00:31:45;101047.72;;;10.62;82.84
21276;BME280;36472;52.170;20.884;2022-11-03T00:34:13;101044.25;;;10.93;81.64
21276;BME280;36472;52.170;20.884;2022-11-03T00:36:44;101044.41;;;10.58;82.57
21276;BME280;36472;52.170;20.884;2022-11-03T00:39:12;101046.38;;;10.21;85.53
21276;BME280;36472;52.170;20.884;2022-11-03T00:41:41;101049.00;;;10.71;82.01
21276;BME280;36472;52.170;20.884;2022-11-03T00:44:10;101049.16;;;10.99;80.65
21276;BME280;36472;52.170;20.884;2022-11-03T00:46:39;101046.44;;;10.69;80.84
21276;BME280;36472;52.170;20.884;2022-11-03T00:49:08;101052.41;;;10.89;80.98
21276;BME280;36472;52.170;20.884;2022-11-03T00:51:37;101058.66;;;11.32;78.63
21276;BME280;36472;52.170;20.884;2022-11-03T00:54:07;101053.41;;;10.86;80.35
21276;BME280;36472;52.170;20.884;2022-11-03T00:56:38;101059.03;;;10.80;81.46
21276;BME280;36472;52.170;20.884;2022-11-03T00:59:08;101054.53;;;10.17;84.06
21276;BME280;36472;52.170;20.884;2022-11-03T01:01:40;101056.22;;;10.51;83.04
21276;BME280;36472;52.170;20.884;2022-11-03T01:04:15;101055.72;;;9.93;84.24
21276;BME280;36472;52.170;20.884;2022-11-03T01:07:02;101065.41;;;10.09;83.55
21276;BME280;36472;52.170;20.884;2022-11-03T01:09:36;101073.09;;;9.79;86.36
21276;BME280;36472;52.170;20.884;2022-11-03T01:12:09;101074.19;;;9.74;85.86
21276;BME280;36472;52.170;20.884;2022-11-03T01:14:40;101074.03;;;9.25;90.12
21276;BME280;36472;52.170;20.884;2022-11-03T01:17:11;101074.03;;;9.78;87.69
21276;BME280;36472;52.170;20.884;2022-11-03T01:19:41;101063.06;;;9.87;85.39
21276;BME280;36472;52.170;20.884;2022-11-03T01:22:10;101076.69;;;9.06;90.54
21276;BME280;36472;52.170;20.884;2022-11-03T01:24:42;101063.06;;;8.80;93.26
21276;BME280;36472;52.170;20.884;2022-11-03T01:27:15;101079.25;;;9.25;90.63
21276;BME280;36472;52.170;20.884;2022-11-03T01:29:44;101080.16;;;9.61;91.56
21276;BME280;36472;52.170;20.884;2022-11-03T01:32:13;101072.22;;;9.08;90.92
21276;BME280;36472;52.170;20.884;2022-11-03T01:34:42;101076.22;;;8.79;94.10
21276;BME280;36472;52.170;20.884;2022-11-03T01:37:10;101063.72;;;8.48;96.89
21276;BME280;36472;52.170;20.884;2022-11-03T01:39:40;101082.47;;;10.35;86.78
21276;BME280;36472;52.170;20.884;2022-11-03T01:42:11;101069.09;;;9.36;89.75
21276;BME280;36472;52.170;20.884;2022-11-03T01:44:45;101065.53;;;9.90;89.84
21276;BME280;36472;52.170;20.884;2022-11-03T01:47:23;101075.75;;;10.12;86.44
21276;BME280;36472;52.170;20.884;2022-11-03T01:49:59;101067.50;;;10.20;85.48
21276;BME280;36472;52.170;20.884;2022-11-03T01:52:33;101067.94;;;9.60;88.85
21276;BME280;36472;52.170;20.884;2022-11-03T01:55:10;101067.03;;;9.07;94.45
21276;BME280;36472;52.170;20.884;2022-11-03T01:57:47;101071.19;;;8.55;98.35
21276;BME280;36472;52.170;20.884;2022-11-03T02:00:19;101076.28;;;8.96;96.03
21276;BME280;36472;52.170;20.884;2022-11-03T02:02:49;101073.03;;;9.80;92.87
21276;BME280;36472;52.170;20.884;2022-11-03T02:05:23;101074.22;;;9.57;88.82
21276;BME280;36472;52.170;20.884;2022-11-03T02:07:58;101072.41;;;9.92;88.02
21276;BME280;36472;52.170;20.884;2022-11-03T02:10:30;101079.31;;;9.60;90.58
21276;BME280;36472;52.170;20.884;2022-11-03T02:12:59;101080.94;;;9.09;92.27
21276;BME280;36472;52.170;20.884;2022-11-03T02:15:29;101071.25;;;9.63;91.19
21276;BME280;36472;52.170;20.884;2022-11-03T02:17:59;101079.13;;;9.28;91.70
21276;BME280;36472;52.170;20.884;2022-11-03T02:20:31;101078.75;;;8.99;95.35
21276;BME280;36472;52.170;20.884;2022-11-03T02:23:20;101075.22;;;9.72;89.30
21276;BME280;36472;52.170;20.884;2022-11-03T02:25:56;101074.13;;;9.59;89.93
21276;BME280;36472;52.170;20.884;2022-11-03T02:28:28;101083.59;;;9.61;91.74
21276;BME280;36472;52.170;20.884;2022-11-03T02:31:09;101078.06;;;9.50;91.60
21276;BME280;36472;52.170;20.884;2022-11-03T02:33:48;101077.72;;;9.21;93.65
21276;BME280;36472;52.170;20.884;2022-11-03T02:36:27;101079.00;;;8.76;95.53
21276;BME280;36472;52.170;20.884;2022-11-03T02:39:04;101081.69;;;8.74;97.40
21276;BME280;36472;52.170;20.884;2022-11-03T02:41:39;101089.09;;;9.74;89.83
21276;BME280;36472;52.170;20.884;2022-11-03T02:44:13;101078.28;;;9.45;90.43
21276;BME280;36472;52.170;20.884;2022-11-03T02:46:46;101091.31;;;8.55;96.63
21276;BME280;36472;52.170;20.884;2022-11-03T02:49:17;101087.34;;;8.46;99.88
21276;BME280;36472;52.170;20.884;2022-11-03T02:51:46;101091.88;;;8.99;95.03
21276;BME280;36472;52.170;20.884;2022-11-03T02:54:22;101089.78;;;9.06;93.41
21276;BME280;36472;52.170;20.884;2022-11-03T02:57:00;101088.78;;;8.33;98.25
21276;BME280;36472;52.170;20.884;2022-11-03T02:59:42;101099.75;;;8.42;100.00
21276;BME280;36472;52.170;20.884;2022-11-03T03:02:18;101095.16;;;8.67;96.58
21276;BME280;36472;52.170;20.884;2022-11-03T03:04:55;101098.56;;;8.29;98.90
21276;BME280;36472;52.170;20.884;2022-11-03T03:07:30;101099.44;;;9.06;93.41
21276;BME280;36472;52.170;20.884;2022-11-03T03:10:04;101096.88;;;8.68;96.03
21276;BME280;36472;52.170;20.884;2022-11-03T03:12:42;101094.72;;;8.57;96.09
21276;BME280;36472;52.170;20.884;2022-11-03T03:15:16;101095.91;;;8.10;100.00
21276;BME280;36472;52.170;20.884;2022-11-03T03:17:51;101097.31;;;8.17;100.00
21276;BME280;36472;52.170;20.884;2022-11-03T03:20:28;101106.91;;;7.98;100.00
21276;BME280;36472;52.170;20.884;2022-11-03T03:23:07;101103.44;;;8.57;98.61
21276;BME280;36472;52.170;20.884;2022-11-03T03:25:45;101099.28;;;8.12;99.76
21276;BME280;36472;52.170;20.884;2022-11-03T03:28:23;101098.97;;;7.79;100.00
21276;BME280;36472;52.170;20.884;2022-11-03T03:30:56;101095.03;;;7.68;100.00
21276;BME280;36472;52.170;20.884;2022-11-03T03:33:30;101089.53;;;7.54;100.00
21276;BME280;36472;52.170;20.884;2022-11-03T03:36:02;101096.84;;;7.46;100.00
21276;BME280;36472;52.170;20.884;2022-11-03T03:38:37;101092.22;;;7.53;100.00
21276;BME280;36472;52.170;20.884;2022-11-03T03:41:09;101103.69;;;7.50;100.00
21276;BME280;36472;52.170;20.884;2022-11-03T03:43:52;101101.50;;;8.21;100.00
21276;BME280;36472;52.170;20.884;2022-11-03T03:46:28;101107.28;;;7.68;100.00
21276;BME280;36472;52.170;20.884;2022-11-03T03:48:59;101109.09;;;8.67;100.00
21276;BME280;36472;52.170;20.884;2022-11-03T03:51:30;101118.00;;;8.44;98.41
21276;BME280;36472;52.170;20.884;2022-11-03T03:53:59;101116.38;;;8.60;93.21
21276;BME280;36472;52.170;20.884;2022-11-03T03:56:35;101122.44;;;8.63;94.07
21276;BME280;36472;52.170;20.884;2022-11-03T03:59:09;101116.78;;;8.12;96.31
21276;BME280;36472;52.170;20.884;2022-11-03T04:01:37;101125.22;;;7.77;100.00
21276;BME280;36472;52.170;20.884;2022-11-03T04:04:06;101125.94;;;8.01;99.83
21276;BME280;36472;52.170;20.884;2022-11-03T04:06:35;101117.38;;;7.57;100.00
21276;BME280;36472;52.170;20.884;2022-11-03T04:09:03;101130.22;;;8.83;96.43
21276;BME280;36472;52.170;20.884;2022-11-03T04:11:32;101122.72;;;8.15;97.46
21276;BME280;36472;52.170;20.884;2022-11-03T04:14:20;101123.41;;;8.60;97.00
21276;BME280;36472;52.170;20.884;2022-11-03T04:17:18;101122.19;;;8.28;95.53
21276;BME280;36472;52.170;20.884;2022-11-03T04:20:12;101114.38;;;7.86;98.93
21276;BME280;36472;52.170;20.884;2022-11-03T04:22:58;101123.41;;;8.00;97.13
21276;BME280;36472;52.170;20.884;2022-11-03T04:25:27;101120.66;;;7.82;99.01
21276;BME280;36472;52.170;20.884;2022-11-03T04:27:56;101121.69;;;8.38;93.78
21276;BME280;36472;52.170;20.884;2022-11-03T04:30:26;101126.84;;;7.80;97.67
21276;BME280;36472;52.170;20.884;2022-11-03T04:32:54;101122.41;;;8.02;98.16
21276;BME280;36472;52.170;20.884;2022-11-03T04:35:26;101128.94;;;7.92;97.79
21276;BME280;36472;52.170;20.884;2022-11-03T04:38:00;101126.19;;;8.16;92.86
21276;BME280;36472;52.170;20.884;2022-11-03T04:40:29;101130.84;;;7.68;97.39
21276;BME280;36472;52.170;20.884;2022-11-03T04:42:58;101134.69;;;7.37;100.00
21276;BME280;36472;52.170;20.884;2022-11-03T04:45:31;101137.25;;;7.17;100.00
21276;BME280;36472;52.170;20.884;2022-11-03T04:48:10;101136.50;;;7.57;100.00
21276;BME280;36472;52.170;20.884;2022-11-03T04:50:41;101135.22;;;7.67;98.26
21276;BME280;36472;52.170;20.884;2022-11-03T04:53:17;101131.06;;;7.41;99.92
21276;BME280;36472;52.170;20.884;2022-11-03T04:55:49;101136.97;;;7.46;100.00
21276;BME280;36472;52.170;20.884;2022-11-03T04:58:21;101126.78;;;7.61;98.65
21276;BME280;36472;52.170;20.884;2022-11-03T05:00:55;101133.78;;;8.22;96.13
21276;BME280;36472;52.170;20.884;2022-11-03T05:03:28;101142.50;;;9.00;91.33
21276;BME280;36472;52.170;20.884;2022-11-03T05:06:01;101137.72;;;7.71;96.86
21276;BME280;36472;52.170;20.884;2022-11-03T05:08:36;101147.41;;;8.30;95.79
21276;BME280;36472;52.170;20.884;2022-11-03T05:11:16;101136.00;;;8.52;89.52
21276;BME280;36472;52.170;20.884;2022-11-03T05:13:47;101140.72;;;8.02;93.83
21276;BME280;36472;52.170;20.884;2022-11-03T05:16:19;101145.22;;;7.78;96.64
21276;BME280;36472;52.170;20.884;2022-11-03T05:18:49;101147.53;;;7.43;97.34
21276;BME280;36472;52.170;20.884;2022-11-03T05:21:21;101144.31;;;7.15;100.00
21276;BME280;36472;52.170;20.884;2022-11-03T05:23:53;101145.00;;;6.96;100.00
21276;BME280;36472;52.170;20.884;2022-11-03T05:26:27;101140.38;;;6.81;100.00
21276;BME280;36472;52.170;20.884;2022-11-03T05:29:01;101139.41;;;6.83;100.00
21276;BME280;36472;52.170;20.884;2022-11-03T05:31:35;101137.53;;;6.63;100.00
21276;BME280;36472;52.170;20.884;2022-11-03T05:34:31;101140.38;;;6.57;100.00
21276;BME280;36472;52.170;20.884;2022-11-03T05:37:19;101142.53;;;6.46;100.00
21276;BME280;36472;52.170;20.884;2022-11-03T05:39:58;101154.31;;;6.58;100.00
21276;BME280;36472;52.170;20.884;2022-11-03T05:42:33;101146.94;;;6.44;100.00
21276;BME280;36472;52.170;20.884;2022-11-03T05:45:15;101150.69;;;6.36;100.00
21276;BME280;36472;52.170;20.884;2022-11-03T05:47:52;101145.81;;;6.27;100.00
21276;BME280;36472;52.170;20.884;2022-11-03T05:50:24;101151.22;;;6.21;100.00
21276;BME280;36472;52.170;20.884;2022-11-03T05:53:25;101159.91;;;6.22;100.00
21276;BME280;36472;52.170;20.884;2022-11-03T05:55:56;101153.94;;;6.18;100.00
21276;BME280;36472;52.170;20.884;2022-11-03T05:58:30;101157.28;;;6.22;100.00
21276;BME280;36472;52.170;20.884;2022-11-03T06:01:04;101148.03;;;6.13;100.00
21276;BME280;36472;52.170;20.884;2022-11-03T06:03:35;101157.56;;;6.14;100.00
21276;BME280;36472;52.170;20.884;2022-11-03T06:06:15;101171.41;;;6.16;100.00
21276;BME280;36472;52.170;20.884;2022-11-03T06:08:46;101164.34;;;6.20;100.00
21276;BME280;36472;52.170;20.884;2022-11-03T06:11:25;101164.44;;;6.42;100.00
21276;BME280;36472;52.170;20.884;2022-11-03T06:13:56;101169.75;;;6.39;100.00
21276;BME280;36472;52.170;20.884;2022-11-03T06:16:37;101167.78;;;6.45;100.00
21276;BME280;36472;52.170;20.884;2022-11-03T06:19:22;101165.13;;;6.47;100.00
21276;BME280;36472;52.170;20.884;2022-11-03T06:21:54;101158.75;;;6.54;100.00
21276;BME280;36472;52.170;20.884;2022-11-03T06:24:29;101162.06;;;6.59;100.00
21276;BME280;36472;52.170;20.884;2022-11-03T06:26:59;101164.25;;;6.71;100.00
21276;BME280;36472;52.170;20.884;2022-11-03T06:29:31;101160.75;;;6.95;100.00
21276;BME280;36472;52.170;20.884;2022-11-03T06:32:01;101175.16;;;7.05;100.00
21276;BME280;36472;52.170;20.884;2022-11-03T06:34:40;101171.28;;;7.15;100.00
21276;BME280;36472;52.170;20.884;2022-11-03T06:37:20;101169.72;;;7.11;100.00
21276;BME280;36472;52.170;20.884;2022-11-03T06:39:57;101168.75;;;7.36;100.00
21276;BME280;36472;52.170;20.884;2022-11-03T06:42:30;101172.41;;;8.17;100.00
21276;BME280;36472;52.170;20.884;2022-11-03T06:45:10;101169.75;;;8.18;99.15
21276;BME280;36472;52.170;20.884;2022-11-03T06:47:40;101179.41;;;8.37;95.96
21276;BME280;36472;52.170;20.884;2022-11-03T06:50:22;101178.84;;;8.51;97.11
21276;BME280;36472;52.170;20.884;2022-11-03T06:52:55;101173.91;;;9.02;90.99
21276;BME280;36472;52.170;20.884;2022-11-03T06:55:27;101178.03;;;8.88;94.18
21276;BME280;36472;52.170;20.884;2022-11-03T06:58:02;101175.91;;;8.96;92.32
21276;BME280;36472;52.170;20.884;2022-11-03T07:00:37;101182.22;;;9.48;90.62
21276;BME280;36472;52.170;20.884;2022-11-03T07:03:16;101173.41;;;9.68;86.74
21276;BME280;36472;52.170;20.884;2022-11-03T07:05:49;101180.09;;;9.56;86.27
21276;BME280;36472;52.170;20.884;2022-11-03T07:08:22;101179.22;;;10.09;84.03
21276;BME280;36472;52.170;20.884;2022-11-03T07:11:00;101175.81;;;9.72;85.91
21276;BME280;36472;52.170;20.884;2022-11-03T07:13:33;101169.78;;;10.40;83.50
21276;BME280;36472;52.170;20.884;2022-11-03T07:16:02;101175.97;;;10.73;81.18
21276;BME280;36472;52.170;20.884;2022-11-03T07:18:35;101182.97;;;10.21;83.04
21276;BME280;36472;52.170;20.884;2022-11-03T07:21:33;101175.13;;;10.39;83.56
21276;BME280;36472;52.170;20.884;2022-11-03T07:24:12;101185.25;;;10.11;83.83
21276;BME280;36472;52.170;20.884;2022-11-03T07:26:42;101170.22;;;10.48;82.74
21276;BME280;36472;52.170;20.884;2022-11-03T07:29:19;101172.50;;;10.39;84.14
21276;BME280;36472;52.170;20.884;2022-11-03T07:31:52;101170.94;;;10.00;83.54
21276;BME280;36472;52.170;20.884;2022-11-03T07:34:25;101157.88;;;10.51;81.74
21276;BME280;36472;52.170;20.884;2022-11-03T07:36:57;101160.03;;;10.42;82.26
21276;BME280;36472;52.170;20.884;2022-11-03T07:39:33;101158.81;;;10.65;79.57
21276;BME280;36472;52.170;20.884;2022-11-03T07:42:12;101169.69;;;10.42;81.24
21276;BME280;36472;52.170;20.884;2022-11-03T07:44:43;101160.44;;;10.68;79.40
21276;BME280;36472;52.170;20.884;2022-11-03T07:47:13;101164.09;;;11.13;78.51
21276;BME280;36472;52.170;20.884;2022-11-03T07:49:44;101160.97;;;11.38;76.63
21276;BME280;36472;52.170;20.884;2022-11-03T07:52:18;101170.31;;;11.28;77.61
21276;BME280;36472;52.170;20.884;2022-11-03T07:54:50;101157.50;;;10.90;79.12
21276;BME280;36472;52.170;20.884;2022-11-03T07:57:23;101169.56;;;11.26;77.22
21276;BME280;36472;52.170;20.884;2022-11-03T08:00:00;101166.09;;;11.72;74.55
21276;BME280;36472;52.170;20.884;2022-11-03T08:02:47;101160.56;;;12.07;72.47
21276;BME280;36472;52.170;20.884;2022-11-03T08:05:18;101160.94;;;11.54;73.85
21276;BME280;36472;52.170;20.884;2022-11-03T08:07:48;101161.72;;;11.56;75.50
21276;BME280;36472;52.170;20.884;2022-11-03T08:10:17;101157.75;;;11.17;77.03
21276;BME280;36472;52.170;20.884;2022-11-03T08:12:47;101160.41;;;12.10;71.70
21276;BME280;36472;52.170;20.884;2022-11-03T08:15:16;101162.50;;;11.73;73.69
21276;BME280;36472;52.170;20.884;2022-11-03T08:17:45;101165.91;;;11.75;73.95
21276;BME280;36472;52.170;20.884;2022-11-03T08:20:20;101162.22;;;11.93;74.17
21276;BME280;36472;52.170;20.884;2022-11-03T08:22:49;101156.09;;;12.38;70.48
21276;BME280;36472;52.170;20.884;2022-11-03T08:25:38;101164.06;;;11.61;73.96
21276;BME280;36472;52.170;20.884;2022-11-03T08:28:07;101161.75;;;11.71;74.78
21276;BME280;36472;52.170;20.884;2022-11-03T08:30:36;101162.00;;;11.36;76.13
21276;BME280;36472;52.170;20.884;2022-11-03T08:33:05;101161.63;;;11.42;76.26
21276;BME280;36472;52.170;20.884;2022-11-03T08:35:34;101161.63;;;12.33;71.71
21276;BME280;36472;52.170;20.884;2022-11-03T08:38:04;101160.97;;;12.15;71.26
21276;BME280;36472;52.170;20.884;2022-11-03T08:40:33;101159.00;;;12.76;69.05
21276;BME280;36472;52.170;20.884;2022-11-03T08:43:02;101161.34;;;12.38;70.93
21276;BME280;36472;52.170;20.884;2022-11-03T08:45:33;101159.06;;;11.87;73.61
21276;BME280;36472;52.170;20.884;2022-11-03T08:48:01;101158.09;;;12.04;72.42
21276;BME280;36472;52.170;20.884;2022-11-03T08:50:31;101159.25;;;12.14;73.17
21276;BME280;36472;52.170;20.884;2022-11-03T08:53:00;101158.38;;;12.44;71.32
21276;BME280;36472;52.170;20.884;2022-11-03T08:55:30;101155.91;;;12.55;69.38
21276;BME280;36472;52.170;20.884;2022-11-03T08:57:58;101147.41;;;12.79;68.76
21276;BME280;36472;52.170;20.884;2022-11-03T09:00:27;101161.41;;;13.08;67.81
21276;BME280;36472;52.170;20.884;2022-11-03T09:02:56;101154.19;;;12.25;70.64
21276;BME280;36472;52.170;20.884;2022-11-03T09:05:25;101159.09;;;12.75;68.77
21276;BME280;36472;52.170;20.884;2022-11-03T09:07:54;101155.69;;;12.29;71.25
21276;BME280;36472;52.170;20.884;2022-11-03T09:10:45;101153.44;;;13.37;65.22
21276;BME280;36472;52.170;20.884;2022-11-03T09:13:13;101149.81;;;12.96;68.27
21276;BME280;36472;52.170;20.884;2022-11-03T09:15:42;101153.53;;;13.35;66.33
21276;BME280;36472;52.170;20.884;2022-11-03T09:18:11;101165.91;;;13.47;66.35
21276;BME280;36472;52.170;20.884;2022-11-03T09:20:39;101151.56;;;13.10;67.49
21276;BME280;36472;52.170;20.884;2022-11-03T09:23:08;101158.06;;;13.60;65.45
21276;BME280;36472;52.170;20.884;2022-11-03T09:25:37;101151.84;;;13.74;64.49
21276;BME280;36472;52.170;20.884;2022-11-03T09:28:07;101149.97;;;12.66;69.50
21276;BME280;36472;52.170;20.884;2022-11-03T09:30:36;101155.38;;;13.47;66.32
21276;BME280;36472;52.170;20.884;2022-11-03T09:33:05;101154.03;;;12.57;70.46
21276;BME280;36472;52.170;20.884;2022-11-03T09:35:34;101153.28;;;13.11;67.29
21276;BME280;36472;52.170;20.884;2022-11-03T09:38:02;101146.06;;;13.42;67.17
21276;BME280;36472;52.170;20.884;2022-11-03T09:40:35;101152.22;;;12.14;72.66
21276;BME280;36472;52.170;20.884;2022-11-03T09:43:04;101140.28;;;13.50;66.53
21276;BME280;36472;52.170;20.884;2022-11-03T09:45:34;101137.72;;;12.36;72.66
21276;BME280;36472;52.170;20.884;2022-11-03T09:48:04;101140.09;;;13.11;70.24
21276;BME280;36472;52.170;20.884;2022-11-03T09:50:33;101138.78;;;13.98;64.99
21276;BME280;36472;52.170;20.884;2022-11-03T09:53:02;101134.00;;;12.96;69.92
21276;BME280;36472;52.170;20.884;2022-11-03T09:55:34;101130.66;;;12.65;71.80
21276;BME280;36472;52.170;20.884;2022-11-03T09:58:11;101125.25;;;13.23;68.48
21276;BME280;36472;52.170;20.884;2022-11-03T10:00:43;101110.06;;;13.94;64.59
21276;BME280;36472;52.170;20.884;2022-11-03T10:03:15;101121.03;;;13.88;65.64
21276;BME280;36472;52.170;20.884;2022-11-03T10:05:46;101111.28;;;13.35;69.36
21276;BME280;36472;52.170;20.884;2022-11-03T10:08:21;101111.34;;;13.48;68.72
21276;BME280;36472;52.170;20.884;2022-11-03T10:11:01;101115.63;;;13.76;66.04
21276;BME280;36472;52.170;20.884;2022-11-03T10:13:35;101107.41;;;13.14;70.19
21276;BME280;36472;52.170;20.884;2022-11-03T10:16:09;101107.94;;;13.99;65.14
21276;BME280;36472;52.170;20.884;2022-11-03T10:18:39;101095.13;;;14.31;63.04
21276;BME280;36472;52.170;20.884;2022-11-03T10:21:15;101101.31;;;14.69;60.89
21276;BME280;36472;52.170;20.884;2022-11-03T10:23:45;101091.03;;;14.14;63.87
21276;BME280;36472;52.170;20.884;2022-11-03T10:26:18;101102.69;;;13.46;69.55
21276;BME280;36472;52.170;20.884;2022-11-03T10:28:59;101103.91;;;12.71;70.50
21276;BME280;36472;52.170;20.884;2022-11-03T10:31:36;101092.38;;;14.33;61.75
21276;BME280;36472;52.170;20.884;2022-11-03T10:34:23;101097.66;;;14.33;60.50
21276;BME280;36472;52.170;20.884;2022-11-03T10:37:13;101087.03;;;13.16;67.73
21276;BME280;36472;52.170;20.884;2022-11-03T10:39:44;101101.72;;;13.47;67.89
21276;BME280;36472;52.170;20.884;2022-11-03T10:42:20;101084.78;;;14.15;63.06
21276;BME280;36472;52.170;20.884;2022-11-03T10:44:52;101084.63;;;14.55;61.01
21276;BME280;36472;52.170;20.884;2022-11-03T10:47:30;101081.25;;;14.66;60.26
21276;BME280;36472;52.170;20.884;2022-11-03T10:50:22;101077.88;;;14.64;59.03
21276;BME280;36472;52.170;20.884;2022-11-03T10:52:53;101076.38;;;15.21;55.55
21276;BME280;36472;52.170;20.884;2022-11-03T10:55:23;101072.09;;;14.20;60.35
21276;BME280;36472;52.170;20.884;2022-11-03T10:57:54;101079.81;;;13.32;65.86
21276;BME280;36472;52.170;20.884;2022-11-03T11:00:23;101066.34;;;13.62;62.65
21276;BME280;36472;52.170;20.884;2022-11-03T11:02:59;101069.47;;;13.82;64.83
21276;BME280;36472;52.170;20.884;2022-11-03T11:05:28;101063.53;;;14.04;61.08
21276;BME280;36472;52.170;20.884;2022-11-03T11:07:58;101060.53;;;13.57;60.61
21276;BME280;36472;52.170;20.884;2022-11-03T11:10:29;101051.56;;;14.37;58.13
21276;BME280;36472;52.170;20.884;2022-11-03T11:13:24;101053.69;;;14.82;57.13
21276;BME280;36472;52.170;20.884;2022-11-03T11:15:55;101049.03;;;14.22;59.77
21276;BME280;36472;52.170;20.884;2022-11-03T11:19:11;101047.03;;;15.24;54.37
21276;BME280;36472;52.170;20.884;2022-11-03T11:22:00;101033.06;;;14.24;58.09
21276;BME280;36472;52.170;20.884;2022-11-03T11:25:02;101032.84;;;15.37;53.84
21276;BME280;36472;52.170;20.884;2022-11-03T11:28:09;101029.81;;;15.19;52.75
21276;BME280;36472;52.170;20.884;2022-11-03T11:31:00;101022.75;;;15.30;51.57
21276;BME280;36472;52.170;20.884;2022-11-03T11:33:31;101027.75;;;15.22;51.12
21276;BME280;36472;52.170;20.884;2022-11-03T11:36:18;101023.56;;;14.09;56.04
21276;BME280;36472;52.170;20.884;2022-11-03T11:39:10;101016.75;;;14.30;55.30
21276;BME280;36472;52.170;20.884;2022-11-03T11:42:06;101010.66;;;14.67;54.49
21276;BME280;36472;52.170;20.884;2022-11-03T11:44:58;101013.28;;;14.91;54.49
21276;BME280;36472;52.170;20.884;2022-11-03T11:47:49;101006.13;;;14.56;55.00
21276;BME280;36472;52.170;20.884;2022-11-03T11:50:36;101012.03;;;14.72;54.36
21276;BME280;36472;52.170;20.884;2022-11-03T11:53:21;101006.88;;;14.82;53.45
21276;BME280;36472;52.170;20.884;2022-11-03T11:56:00;101001.66;;;14.93;53.30
21276;BME280;36472;52.170;20.884;2022-11-03T11:58:37;100994.19;;;13.75;57.16
21276;BME280;36472;52.170;20.884;2022-11-03T12:01:22;100995.34;;;14.59;54.92
21276;BME280;36472;52.170;20.884;2022-11-03T12:03:54;100997.56;;;14.52;54.85
21276;BME280;36472;52.170;20.884;2022-11-03T12:06:35;100992.84;;;13.82;57.88
21276;BME280;36472;52.170;20.884;2022-11-03T12:09:15;100997.78;;;13.87;57.53
21276;BME280;36472;52.170;20.884;2022-11-03T12:11:46;100988.56;;;14.05;58.34
21276;BME280;36472;52.170;20.884;2022-11-03T12:14:24;100989.72;;;15.23;52.02
21276;BME280;36472;52.170;20.884;2022-11-03T12:16:54;100983.19;;;15.16;52.62
21276;BME280;36472;52.170;20.884;2022-11-03T12:19:38;100983.97;;;14.33;56.67
21276;BME280;36472;52.170;20.884;2022-11-03T12:22:09;100979.19;;;14.01;58.63
21276;BME280;36472;52.170;20.884;2022-11-03T12:24:49;100972.75;;;14.90;54.68
21276;BME280;36472;52.170;20.884;2022-11-03T12:27:40;100970.91;;;14.06;58.26
21276;BME280;36472;52.170;20.884;2022-11-03T12:30:16;100960.84;;;15.20;52.47
21276;BME280;36472;52.170;20.884;2022-11-03T12:32:46;100969.28;;;14.29;56.24
21276;BME280;36472;52.170;20.884;2022-11-03T12:35:15;100962.50;;;13.75;59.50
21276;BME280;36472;52.170;20.884;2022-11-03T12:37:44;100964.19;;;13.37;62.96
21276;BME280;36472;52.170;20.884;2022-11-03T12:40:14;100968.13;;;15.63;50.17
21276;BME280;36472;52.170;20.884;2022-11-03T12:42:43;100962.72;;;15.07;50.03
21276;BME280;36472;52.170;20.884;2022-11-03T12:45:12;100968.53;;;13.64;57.24
21276;BME280;36472;52.170;20.884;2022-11-03T12:47:41;100959.06;;;13.21;59.39
21276;BME280;36472;52.170;20.884;2022-11-03T12:50:10;100959.63;;;13.26;61.89
21276;BME280;36472;52.170;20.884;2022-11-03T12:52:38;100952.03;;;13.99;57.06
21276;BME280;36472;52.170;20.884;2022-11-03T12:55:08;100950.03;;;13.64;59.63
21276;BME280;36472;52.170;20.884;2022-11-03T12:57:38;100948.25;;;14.27;55.35
21276;BME280;36472;52.170;20.884;2022-11-03T13:00:08;100950.22;;;14.36;54.43
21276;BME280;36472;52.170;20.884;2022-11-03T13:02:37;100944.06;;;14.12;54.70
21276;BME280;36472;52.170;20.884;2022-11-03T13:05:07;100946.47;;;13.39;63.01
21276;BME280;36472;52.170;20.884;2022-11-03T13:07:36;100947.34;;;13.13;65.74
21276;BME280;36472;52.170;20.884;2022-11-03T13:10:06;100949.84;;;13.01;61.85
21276;BME280;36472;52.170;20.884;2022-11-03T13:12:34;100946.66;;;13.49;58.35
21276;BME280;36472;52.170;20.884;2022-11-03T13:15:10;100951.69;;;13.14;63.98
21276;BME280;36472;52.170;20.884;2022-11-03T13:17:42;100942.81;;;13.02;62.28
21276;BME280;36472;52.170;20.884;2022-11-03T13:20:32;100949.28;;;12.83;66.81